Glendale, Oregon
Current Conditions -  °F | °C
As of 2:32 PM on Thursday 23 Oct 2014 (Local Time) from KSXT Reporting Station
Haze Haze  
Wind Chill: 43°   Ceiling: 1500
Heat Index: 47°   Visibility: 1.5mi
Dew Point: 46°   Wind: 8mph
Humidity: 97%   Direction: 210°SSW
Pressure: 30"   Gusts: NA
Location:  42.74°N, 123.42°W
Report Text: KSXT 232132Z AUTO 21007KT 1 1/2SM BR SCT002 BKN015 OVC050 08/08 A3000 RMK AO2 VIS 3/4V5 T00830078
Loading
Personal Weather Stations






























Interactive Weather Map
Tropical Storm Tracking
New forecast layout! Learn more

10-Day Weather Forecast

Advertisements
Track Severe Weather on mobile